createdAt,value
2023-01-12T00:02:20.902Z,97766.00
2023-01-12T00:04:49.041Z,97756.00
2023-01-12T00:07:18.214Z,97750.00
2023-01-12T00:09:46.420Z,97750.00
2023-01-12T00:12:14.593Z,97748.00
2023-01-12T00:14:42.808Z,97746.00
2023-01-12T00:17:11.899Z,97733.00
2023-01-12T00:19:41.522Z,97736.00
2023-01-12T00:22:11.903Z,97742.00
2023-01-12T00:24:43.845Z,97745.00
2023-01-12T00:27:14.638Z,97740.00
2023-01-12T00:29:43.254Z,97759.00
2023-01-12T00:32:15.159Z,97769.00
2023-01-12T00:34:45.310Z,97754.00
2023-01-12T00:37:13.809Z,97756.00
2023-01-12T00:39:45.919Z,97745.00
2023-01-12T00:42:42.397Z,97757.00
2023-01-12T00:45:24.351Z,97771.00
2023-01-12T00:47:53.565Z,97770.00
2023-01-12T00:50:23.977Z,97769.00
2023-01-12T00:52:52.205Z,97765.00
2023-01-12T00:55:20.434Z,97761.00
2023-01-12T00:57:48.771Z,97753.00
2023-01-12T01:00:18.533Z,97766.00
2023-01-12T01:02:46.810Z,97759.00
2023-01-12T01:05:15.372Z,97773.00
2023-01-12T01:07:46.848Z,97765.00
2023-01-12T01:10:16.852Z,97753.00
2023-01-12T01:12:45.336Z,97745.00
2023-01-12T01:15:13.890Z,97758.00
2023-01-12T01:17:42.186Z,97755.00
2023-01-12T01:20:12.547Z,97756.00
2023-01-12T01:22:40.751Z,97756.00
2023-01-12T01:25:11.548Z,97749.00
2023-01-12T01:27:39.962Z,97760.00
2023-01-12T01:30:10.156Z,97747.00
2023-01-12T01:32:38.369Z,97765.00
2023-01-12T01:35:07.168Z,97752.00
2023-01-12T01:37:35.299Z,97750.00
2023-01-12T01:40:03.446Z,97762.00
2023-01-12T01:42:32.985Z,97742.00
2023-01-12T01:45:05.135Z,97754.00
2023-01-12T01:47:41.942Z,97753.00
2023-01-12T01:50:19.465Z,97762.00
2023-01-12T01:52:57.124Z,97761.00
2023-01-12T01:55:33.879Z,97758.00
2023-01-12T01:58:09.052Z,97747.00
2023-01-12T02:00:39.568Z,97742.00
2023-01-12T02:03:09.526Z,97742.00
2023-01-12T02:05:40.672Z,97737.00
2023-01-12T02:08:17.593Z,97747.00
2023-01-12T02:10:46.313Z,97743.00
2023-01-12T02:13:34.551Z,97740.00
2023-01-12T02:16:22.808Z,97745.00
2023-01-12T02:19:29.062Z,97746.00
2023-01-12T02:23:05.572Z,97726.00
2023-01-12T02:26:33.561Z,97732.00
2023-01-12T02:29:55.500Z,97728.00
2023-01-12T02:32:33.721Z,97741.00
2023-01-12T02:35:17.585Z,97726.00
2023-01-12T02:37:58.068Z,97717.00
2023-01-12T02:40:39.598Z,97716.00
2023-01-12T02:43:16.195Z,97721.00
2023-01-12T02:45:54.706Z,97713.00
2023-01-12T02:48:31.256Z,97725.00
2023-01-12T02:51:08.063Z,97723.00
2023-01-12T02:53:43.439Z,97710.00
2023-01-12T02:56:15.283Z,97709.00
2023-01-12T02:58:49.345Z,97699.00
2023-01-12T03:01:21.601Z,97714.00
2023-01-12T03:03:53.041Z,97695.00
2023-01-12T03:06:21.210Z,97700.00
2023-01-12T03:08:52.358Z,97705.00
2023-01-12T03:11:22.726Z,97711.00
2023-01-12T03:13:57.140Z,97710.00
2023-01-12T03:16:31.181Z,97698.00
2023-01-12T03:19:09.357Z,97702.00
2023-01-12T03:21:41.293Z,97689.00
2023-01-12T03:24:13.423Z,97688.00
2023-01-12T03:26:47.617Z,97686.00
2023-01-12T03:29:23.837Z,97674.00
2023-01-12T03:31:52.307Z,97696.00
2023-01-12T03:34:22.287Z,97689.00
2023-01-12T03:36:59.414Z,97692.00
2023-01-12T03:39:38.052Z,97686.00
2023-01-12T03:42:13.109Z,97687.00
2023-01-12T03:44:48.429Z,97688.00
2023-01-12T03:47:25.238Z,97681.00
2023-01-12T03:50:00.305Z,97675.00
2023-01-12T03:52:31.244Z,97683.00
2023-01-12T03:55:01.582Z,97678.00
2023-01-12T03:57:31.032Z,97667.00
2023-01-12T04:00:03.011Z,97661.00
2023-01-12T04:02:40.776Z,97658.00
2023-01-12T04:05:14.038Z,97655.00
2023-01-12T04:07:42.436Z,97654.00
2023-01-12T04:10:11.747Z,97650.00
2023-01-12T04:12:39.821Z,97645.00
2023-01-12T04:15:09.235Z,97644.00
2023-01-12T04:17:37.371Z,97641.00
2023-01-12T04:20:17.103Z,97644.00
2023-01-12T04:22:44.745Z,97638.00
2023-01-12T04:25:16.027Z,97651.00
2023-01-12T04:27:48.519Z,97667.00
2023-01-12T04:30:18.668Z,97656.00
2023-01-12T04:32:47.323Z,97649.00
2023-01-12T04:35:17.338Z,97640.00
2023-01-12T04:37:46.450Z,97649.00
2023-01-12T04:40:17.598Z,97627.00
2023-01-12T04:43:08.251Z,97637.00
2023-01-12T04:45:40.701Z,97635.00
2023-01-12T04:48:12.163Z,97640.00
2023-01-12T04:50:44.263Z,97636.00
2023-01-12T04:53:13.996Z,97629.00
2023-01-12T04:55:44.686Z,97628.00
2023-01-12T04:58:12.795Z,97623.00
2023-01-12T05:00:40.988Z,97650.00
2023-01-12T05:03:14.249Z,97640.00
2023-01-12T05:05:43.978Z,97644.00
2023-01-12T05:08:29.889Z,97630.00
2023-01-12T05:11:01.092Z,97635.00
2023-01-12T05:13:32.424Z,97638.00
2023-01-12T05:16:11.386Z,97635.00
2023-01-12T05:18:39.743Z,97641.00
2023-01-12T05:21:09.799Z,97624.00
2023-01-12T05:23:38.168Z,97627.00
2023-01-12T05:26:07.626Z,97628.00
2023-01-12T05:28:36.004Z,97626.00
2023-01-12T05:31:08.307Z,97625.00
2023-01-12T05:33:37.595Z,97624.00
2023-01-12T05:36:09.828Z,97621.00
2023-01-12T05:38:38.067Z,97623.00
2023-01-12T05:41:10.144Z,97612.00
2023-01-12T05:43:52.808Z,97608.00
2023-01-12T05:46:24.082Z,97615.00
2023-01-12T05:48:53.588Z,97616.00
2023-01-12T05:51:25.168Z,97601.00
2023-01-12T05:53:53.455Z,97616.00
2023-01-12T05:56:26.122Z,97609.00
2023-01-12T05:58:57.050Z,97615.00
2023-01-12T06:01:25.691Z,97620.00
2023-01-12T06:03:56.335Z,97629.00
2023-01-12T06:06:27.984Z,97604.00
2023-01-12T06:08:56.181Z,97619.00
2023-01-12T06:11:42.565Z,97624.00
2023-01-12T06:14:11.557Z,97618.00
2023-01-12T06:16:42.274Z,97617.00
2023-01-12T06:19:13.010Z,97619.00
2023-01-12T06:21:42.876Z,97619.00
2023-01-12T06:24:11.299Z,97613.00
2023-01-12T06:26:39.518Z,97616.00
2023-01-12T06:29:07.889Z,97615.00
2023-01-12T06:31:37.065Z,97607.00
2023-01-12T06:34:07.461Z,97602.00
2023-01-12T06:36:35.950Z,97602.00
2023-01-12T06:39:05.882Z,97609.00
2023-01-12T06:41:53.203Z,97598.00
2023-01-12T06:44:21.444Z,97600.00
2023-01-12T06:46:49.790Z,97588.00
2023-01-12T06:49:18.393Z,97608.00
2023-01-12T06:51:51.217Z,97598.00
2023-01-12T06:54:23.356Z,97590.00
2023-01-12T06:56:51.529Z,97596.00
2023-01-12T06:59:19.587Z,97586.00
2023-01-12T07:01:47.881Z,97583.00
2023-01-12T07:04:16.123Z,97595.00
2023-01-12T07:06:44.368Z,97583.00
2023-01-12T07:09:12.532Z,97584.00
2023-01-12T07:11:42.222Z,97578.00
2023-01-12T07:14:10.390Z,97571.00
2023-01-12T07:16:40.120Z,97561.00
2023-01-12T07:19:08.291Z,97573.00
2023-01-12T07:21:36.418Z,97570.00
2023-01-12T07:24:04.743Z,97560.00
2023-01-12T07:26:32.895Z,97577.00
2023-01-12T07:29:02.507Z,97572.00
2023-01-12T07:31:30.767Z,97585.00
2023-01-12T07:33:58.979Z,97578.00
2023-01-12T07:36:27.074Z,97581.00
2023-01-12T07:38:55.400Z,97567.00
2023-01-12T07:41:41.317Z,97563.00
2023-01-12T07:44:11.632Z,97559.00
2023-01-12T07:46:39.869Z,97555.00
2023-01-12T07:49:08.208Z,97566.00
2023-01-12T07:51:36.564Z,97545.00
2023-01-12T07:54:04.937Z,97551.00
2023-01-12T07:56:33.265Z,97550.00
2023-01-12T07:59:01.428Z,97548.00
2023-01-12T08:01:32.468Z,97554.00
2023-01-12T08:04:00.686Z,97551.00
2023-01-12T08:06:28.920Z,97534.00
2023-01-12T08:08:57.280Z,97549.00
2023-01-12T08:11:27.480Z,97538.00
2023-01-12T08:13:57.186Z,97533.00
2023-01-12T08:16:31.874Z,97535.00
2023-01-12T08:19:05.343Z,97534.00
2023-01-12T08:21:45.056Z,97525.00
2023-01-12T08:24:21.282Z,97541.00
2023-01-12T08:26:54.421Z,97523.00
2023-01-12T08:29:31.943Z,97531.00
2023-01-12T08:34:42.418Z,97541.00
2023-01-12T08:37:17.296Z,97542.00
2023-01-12T08:39:47.312Z,97534.00
2023-01-12T08:42:15.476Z,97530.00
2023-01-12T08:44:43.820Z,97537.00
2023-01-12T08:47:20.658Z,97529.00
2023-01-12T08:49:48.835Z,97529.00
2023-01-12T08:52:17.463Z,97533.00
2023-01-12T08:54:46.027Z,97533.00
2023-01-12T08:57:16.080Z,97529.00
2023-01-12T08:59:44.360Z,97532.00
2023-01-12T09:02:13.129Z,97523.00
2023-01-12T09:04:43.078Z,97521.00
2023-01-12T09:07:12.477Z,97498.00
2023-01-12T09:09:41.017Z,97514.00
2023-01-12T09:12:09.220Z,97517.00
2023-01-12T09:14:38.692Z,97528.00
2023-01-12T09:17:07.818Z,97521.00
2023-01-12T09:19:35.969Z,97524.00
2023-01-12T09:22:05.481Z,97527.00
2023-01-12T09:24:33.653Z,97527.00
2023-01-12T09:27:01.752Z,97529.00
2023-01-12T09:29:29.852Z,97530.00
2023-01-12T09:31:58.204Z,97531.00
2023-01-12T09:34:26.374Z,97535.00
2023-01-12T09:36:56.529Z,97528.00
2023-01-12T09:39:28.836Z,97526.00
2023-01-12T09:42:17.898Z,97536.00
2023-01-12T09:45:07.322Z,97527.00
2023-01-12T09:47:41.270Z,97540.00
2023-01-12T09:50:14.792Z,97532.00
2023-01-12T09:52:49.373Z,97524.00
2023-01-12T09:55:22.557Z,97528.00
2023-01-12T09:58:07.395Z,97521.00
2023-01-12T10:00:35.787Z,97533.00
2023-01-12T10:03:15.062Z,97531.00
2023-01-12T10:05:49.435Z,97515.00
2023-01-12T10:08:27.472Z,97513.00
2023-01-12T10:11:18.248Z,97519.00
2023-01-12T10:14:15.114Z,97515.00
2023-01-12T10:16:58.510Z,97503.00
2023-01-12T10:19:35.764Z,97513.00
2023-01-12T10:22:36.723Z,97512.00
2023-01-12T10:25:31.675Z,97504.00
2023-01-12T10:28:07.428Z,97490.00
2023-01-12T10:30:38.767Z,97496.00
2023-01-12T10:33:12.992Z,97488.00
2023-01-12T10:35:53.822Z,97480.00
2023-01-12T10:38:32.280Z,97484.00
2023-01-12T10:41:18.306Z,97485.00
2023-01-12T10:44:07.736Z,97483.00
2023-01-12T10:46:38.874Z,97485.00
2023-01-12T10:49:20.378Z,97476.00
2023-01-12T10:51:56.260Z,97478.00
2023-01-12T10:54:26.756Z,97485.00
2023-01-12T10:57:00.009Z,97472.00
2023-01-12T10:59:33.458Z,97471.00
2023-01-12T11:02:16.780Z,97472.00
2023-01-12T11:04:48.267Z,97470.00
2023-01-12T11:07:19.445Z,97470.00
2023-01-12T11:09:47.999Z,97458.00
2023-01-12T11:12:29.604Z,97481.00
2023-01-12T11:15:17.512Z,97457.00
2023-01-12T11:18:16.591Z,97467.00
2023-01-12T11:20:51.271Z,97454.00
2023-01-12T11:23:28.391Z,97448.00
2023-01-12T11:25:57.920Z,97450.00
2023-01-12T11:28:35.784Z,97440.00
2023-01-12T11:31:13.502Z,97431.00
2023-01-12T11:33:48.482Z,97439.00
2023-01-12T11:36:26.271Z,97443.00
2023-01-12T11:39:02.729Z,97424.00
2023-01-12T11:41:40.217Z,97434.00
2023-01-12T11:44:19.281Z,97427.00
2023-01-12T11:46:56.644Z,97437.00
2023-01-12T11:49:39.334Z,97444.00
2023-01-12T11:52:13.267Z,97433.00
2023-01-12T11:54:42.819Z,97429.00
2023-01-12T11:57:51.256Z,97424.00
2023-01-12T12:00:37.645Z,97430.00
2023-01-12T12:03:32.329Z,97420.00
2023-01-12T12:06:22.041Z,97423.00
2023-01-12T12:09:03.038Z,97415.00
2023-01-12T12:11:43.304Z,97405.00
2023-01-12T12:14:31.863Z,97400.00
2023-01-12T12:17:09.284Z,97387.00
2023-01-12T12:19:54.467Z,97388.00
2023-01-12T12:22:45.883Z,97401.00
2023-01-12T12:25:27.155Z,97400.00
2023-01-12T12:28:23.342Z,97403.00
2023-01-12T12:31:17.382Z,97381.00
2023-01-12T12:34:13.097Z,97395.00
2023-01-12T12:36:51.397Z,97395.00
2023-01-12T12:39:45.260Z,97388.00
2023-01-12T12:42:58.447Z,97387.00
2023-01-12T12:45:41.088Z,97394.00
2023-01-12T12:48:16.699Z,97383.00
2023-01-12T12:50:57.531Z,97396.00
2023-01-12T12:53:32.830Z,97383.00
2023-01-12T12:56:05.637Z,97384.00
2023-01-12T12:58:48.851Z,97376.00
2023-01-12T13:01:56.504Z,97363.00
2023-01-12T13:05:05.203Z,97376.00
2023-01-12T13:07:42.391Z,97371.00
2023-01-12T13:10:31.689Z,97368.00
2023-01-12T13:13:05.747Z,97365.00
2023-01-12T13:15:37.606Z,97368.00
2023-01-12T13:18:07.407Z,97371.00
2023-01-12T13:21:01.975Z,97362.00
2023-01-12T13:23:52.530Z,97368.00
2023-01-12T13:26:52.348Z,97353.00
2023-01-12T13:29:50.499Z,97363.00
2023-01-12T13:32:58.013Z,97360.00
2023-01-12T13:36:04.302Z,97362.00
2023-01-12T13:38:50.040Z,97366.00
2023-01-12T13:41:44.054Z,97346.00
2023-01-12T13:44:21.343Z,97356.00
2023-01-12T13:46:52.339Z,97357.00
2023-01-12T13:49:31.502Z,97347.00
2023-01-12T13:52:06.730Z,97359.00
2023-01-12T13:54:35.992Z,97353.00
2023-01-12T13:57:10.574Z,97353.00
2023-01-12T13:59:40.164Z,97354.00
2023-01-12T14:02:19.275Z,97334.00
2023-01-12T14:05:05.702Z,97337.00
2023-01-12T14:07:53.729Z,97344.00
2023-01-12T14:10:36.950Z,97345.00
2023-01-12T14:13:32.891Z,97347.00
2023-01-12T14:16:28.001Z,97353.00
2023-01-12T14:18:56.310Z,97340.00
2023-01-12T14:21:28.912Z,97344.00
2023-01-12T14:24:16.268Z,97344.00
2023-01-12T14:26:44.699Z,97344.00
2023-01-12T14:29:13.720Z,97332.00
2023-01-12T14:31:48.483Z,97337.00
2023-01-12T14:34:32.477Z,97331.00
2023-01-12T14:37:01.951Z,97342.00
2023-01-12T14:39:40.936Z,97328.00
2023-01-12T14:42:36.080Z,97347.00
2023-01-12T14:45:38.848Z,97331.00
2023-01-12T14:48:26.139Z,97334.00
2023-01-12T14:51:19.243Z,97328.00
2023-01-12T14:53:49.645Z,97340.00
2023-01-12T14:56:22.443Z,97334.00
2023-01-12T14:58:50.972Z,97334.00
2023-01-12T15:01:36.983Z,97346.00
2023-01-12T15:04:17.170Z,97346.00
2023-01-12T15:06:47.442Z,97330.00
2023-01-12T15:09:29.261Z,97333.00
2023-01-12T15:11:57.769Z,97354.00
2023-01-12T15:14:30.096Z,97340.00
2023-01-12T15:17:15.711Z,97335.00
2023-01-12T15:20:03.062Z,97330.00
2023-01-12T15:22:49.571Z,97330.00
2023-01-12T15:25:38.228Z,97340.00
2023-01-12T15:28:11.184Z,97347.00
2023-01-12T15:30:40.406Z,97345.00
2023-01-12T15:33:10.555Z,97331.00
2023-01-12T15:35:45.846Z,97337.00
2023-01-12T15:38:18.051Z,97352.00
2023-01-12T15:40:48.591Z,97337.00
2023-01-12T15:43:18.747Z,97336.00
2023-01-12T15:45:48.657Z,97344.00
2023-01-12T15:48:16.798Z,97340.00
2023-01-12T15:50:47.335Z,97334.00
2023-01-12T15:53:20.791Z,97339.00
2023-01-12T15:55:50.124Z,97339.00
2023-01-12T15:58:19.545Z,97331.00
2023-01-12T16:00:48.353Z,97325.00
2023-01-12T16:03:49.046Z,97334.00
2023-01-12T16:06:08.100Z,97354.00
2023-01-12T16:08:36.371Z,97348.00
2023-01-12T16:11:13.256Z,97354.00
2023-01-12T16:13:42.106Z,97358.00
2023-01-12T16:16:16.919Z,97350.00
2023-01-12T16:18:45.416Z,97361.00
2023-01-12T16:21:18.083Z,97357.00
2023-01-12T16:23:46.469Z,97363.00
2023-01-12T16:26:14.780Z,97361.00
2023-01-12T16:28:43.129Z,97353.00
2023-01-12T16:31:14.740Z,97341.00
2023-01-12T16:33:44.473Z,97353.00
2023-01-12T16:36:16.020Z,97338.00
2023-01-12T16:38:44.404Z,97351.00
2023-01-12T16:41:15.858Z,97354.00
2023-01-12T16:43:43.994Z,97362.00
2023-01-12T16:46:13.526Z,97357.00
2023-01-12T16:48:42.476Z,97344.00
2023-01-12T16:51:18.541Z,97339.00
2023-01-12T16:53:48.311Z,97353.00
2023-01-12T16:56:17.986Z,97347.00
2023-01-12T16:58:48.294Z,97347.00
2023-01-12T17:01:21.013Z,97333.00
2023-01-12T17:03:50.645Z,97337.00
2023-01-12T17:06:22.712Z,97333.00
2023-01-12T17:08:50.871Z,97329.00
2023-01-12T17:11:20.740Z,97335.00
2023-01-12T17:13:52.438Z,97314.00
2023-01-12T17:16:22.408Z,97330.00
2023-01-12T17:18:51.072Z,97319.00
2023-01-12T17:21:21.670Z,97337.00
2023-01-12T17:23:50.169Z,97331.00
2023-01-12T17:26:20.144Z,97330.00
2023-01-12T17:28:48.743Z,97343.00
2023-01-12T17:31:20.468Z,97345.00
2023-01-12T17:33:50.055Z,97341.00
2023-01-12T17:36:20.362Z,97332.00
2023-01-12T17:38:48.495Z,97323.00
2023-01-12T17:41:31.894Z,97324.00
2023-01-12T17:44:02.671Z,97322.00
2023-01-12T17:46:31.631Z,97319.00
2023-01-12T17:49:00.168Z,97321.00
2023-01-12T17:51:29.867Z,97330.00
2023-01-12T17:53:59.150Z,97303.00
2023-01-12T17:56:31.275Z,97322.00
2023-01-12T17:59:00.769Z,97313.00
2023-01-12T18:01:33.494Z,97314.00
2023-01-12T18:04:02.976Z,97314.00
2023-01-12T18:06:32.621Z,97310.00
2023-01-12T18:09:01.116Z,97311.00
2023-01-12T18:11:31.083Z,97326.00
2023-01-12T18:14:01.636Z,97314.00
2023-01-12T18:16:30.825Z,97325.00
2023-01-12T18:19:00.329Z,97308.00
2023-01-12T18:21:28.847Z,97308.00
2023-01-12T18:23:59.009Z,97289.00
2023-01-12T18:26:30.992Z,97304.00
2023-01-12T18:29:01.692Z,97293.00
2023-01-12T18:31:32.927Z,97296.00
2023-01-12T18:34:04.687Z,97279.00
2023-01-12T18:36:36.134Z,97297.00
2023-01-12T18:39:08.223Z,97284.00
2023-01-12T18:41:54.988Z,97283.00
2023-01-12T18:44:23.356Z,97275.00
2023-01-12T18:47:09.174Z,97274.00
2023-01-12T18:49:38.237Z,97281.00
2023-01-12T18:52:33.250Z,97289.00
2023-01-12T18:55:02.947Z,97272.00
2023-01-12T18:57:33.725Z,97289.00
2023-01-12T19:00:14.242Z,97273.00
2023-01-12T19:02:42.568Z,97275.00
2023-01-12T19:05:20.419Z,97273.00
2023-01-12T19:08:04.523Z,97269.00
2023-01-12T19:10:35.181Z,97261.00
2023-01-12T19:13:20.894Z,97272.00
2023-01-12T19:16:06.913Z,97268.00
2023-01-12T19:18:36.909Z,97275.00
2023-01-12T19:21:27.278Z,97265.00
2023-01-12T19:24:09.386Z,97270.00
2023-01-12T19:26:56.632Z,97265.00
2023-01-12T19:29:24.862Z,97265.00
2023-01-12T19:31:53.026Z,97260.00
2023-01-12T19:34:24.736Z,97254.00
2023-01-12T19:36:55.428Z,97249.00
2023-01-12T19:39:34.390Z,97256.00
2023-01-12T19:42:21.568Z,97256.00
2023-01-12T19:44:49.692Z,97256.00
2023-01-12T19:47:17.880Z,97261.00
2023-01-12T19:49:46.063Z,97255.00
2023-01-12T19:52:14.209Z,97260.00
2023-01-12T19:54:42.443Z,97245.00
2023-01-12T19:57:11.967Z,97244.00
2023-01-12T19:59:40.103Z,97242.00
2023-01-12T20:02:10.210Z,97249.00
2023-01-12T20:04:38.975Z,97237.00
2023-01-12T20:07:09.557Z,97246.00
2023-01-12T20:09:38.471Z,97244.00
2023-01-12T20:12:11.607Z,97240.00
2023-01-12T20:14:39.808Z,97241.00
2023-01-12T20:17:08.524Z,97222.00
2023-01-12T20:19:37.268Z,97244.00
2023-01-12T20:22:05.604Z,97247.00
2023-01-12T20:24:33.893Z,97244.00
2023-01-12T20:27:02.565Z,97236.00
2023-01-12T20:29:34.055Z,97245.00
2023-01-12T20:32:02.486Z,97227.00
2023-01-12T20:34:32.855Z,97227.00
2023-01-12T20:37:01.241Z,97226.00
2023-01-12T20:39:30.827Z,97212.00
2023-01-12T20:41:58.943Z,97226.00
2023-01-12T20:44:27.146Z,97216.00
2023-01-12T20:46:56.695Z,97238.00
2023-01-12T20:49:25.141Z,97223.00
2023-01-12T20:51:53.390Z,97208.00
2023-01-12T20:54:21.625Z,97228.00
2023-01-12T20:56:49.817Z,97225.00
2023-01-12T20:59:17.955Z,97212.00
2023-01-12T21:01:46.279Z,97227.00
2023-01-12T21:04:15.907Z,97225.00
2023-01-12T21:06:44.138Z,97198.00
2023-01-12T21:09:12.537Z,97202.00
2023-01-12T21:11:42.226Z,97206.00
2023-01-12T21:14:10.399Z,97204.00
2023-01-12T21:16:38.624Z,97199.00
2023-01-12T21:19:07.706Z,97202.00
2023-01-12T21:21:37.753Z,97195.00
2023-01-12T21:24:06.650Z,97189.00
2023-01-12T21:26:34.820Z,97192.00
2023-01-12T21:29:03.142Z,97192.00
2023-01-12T21:31:31.702Z,97188.00
2023-01-12T21:34:00.181Z,97182.00
2023-01-12T21:36:28.368Z,97185.00
2023-01-12T21:38:59.120Z,97180.00
2023-01-12T21:41:27.712Z,97184.00
2023-01-12T21:43:55.017Z,97178.00
2023-01-12T21:46:23.259Z,97180.00
2023-01-12T21:48:51.500Z,97181.00
2023-01-12T21:51:19.828Z,97166.00
2023-01-12T21:53:48.080Z,97168.00
2023-01-12T21:56:17.551Z,97177.00
2023-01-12T21:58:45.730Z,97184.00
2023-01-12T22:01:15.778Z,97179.00
2023-01-12T22:03:45.058Z,97165.00
2023-01-12T22:06:14.720Z,97168.00
2023-01-12T22:08:43.780Z,97183.00
2023-01-12T22:11:14.931Z,97163.00
2023-01-12T22:13:44.916Z,97164.00
2023-01-12T22:16:16.238Z,97185.00
2023-01-12T22:18:49.036Z,97173.00
2023-01-12T22:21:19.380Z,97178.00
2023-01-12T22:23:48.011Z,97177.00
2023-01-12T22:26:17.669Z,97172.00
2023-01-12T22:28:51.684Z,97162.00
2023-01-12T22:31:25.036Z,97176.00
2023-01-12T22:33:58.436Z,97177.00
2023-01-12T22:36:27.089Z,97164.00
2023-01-12T22:38:55.561Z,97182.00
2023-01-12T22:41:24.770Z,97167.00
2023-01-12T22:43:54.445Z,97158.00
2023-01-12T22:46:25.575Z,97166.00
2023-01-12T22:48:56.286Z,97168.00
2023-01-12T22:51:27.559Z,97169.00
2023-01-12T22:53:57.557Z,97161.00
2023-01-12T22:56:26.310Z,97144.00
2023-01-12T22:58:57.666Z,97147.00
2023-01-12T23:01:27.014Z,97147.00
2023-01-12T23:03:57.135Z,97152.00
2023-01-12T23:06:26.907Z,97149.00
2023-01-12T23:08:55.353Z,97148.00
2023-01-12T23:11:26.493Z,97143.00
2023-01-12T23:13:56.582Z,97143.00
2023-01-12T23:16:24.958Z,97147.00
2023-01-12T23:18:55.185Z,97151.00
2023-01-12T23:21:26.339Z,97140.00
2023-01-12T23:23:56.808Z,97139.00
2023-01-12T23:26:27.223Z,97143.00
2023-01-12T23:29:00.207Z,97135.00
2023-01-12T23:31:33.121Z,97134.00
2023-01-12T23:34:01.710Z,97136.00
2023-01-12T23:36:31.217Z,97122.00
2023-01-12T23:39:02.875Z,97131.00
2023-01-12T23:41:34.405Z,97123.00
2023-01-12T23:44:07.563Z,97108.00
2023-01-12T23:46:39.317Z,97109.00
2023-01-12T23:49:07.664Z,97111.00
2023-01-12T23:51:36.715Z,97117.00
2023-01-12T23:54:05.371Z,97113.00
2023-01-12T23:56:34.925Z,97124.00
2023-01-12T23:59:04.388Z,97111.00
